sensor_id;sensor_type;location;lat;lon;timestamp;pressure;altitude;pressure_sealevel;temperature;humidity
76297;BME280;65104;52.994;6.552;2023-05-16T00:00:48;101763.19;;;7.93;100.00
76297;BME280;65104;52.994;6.552;2023-05-16T00:03:17;101767.69;;;7.98;100.00
76297;BME280;65104;52.994;6.552;2023-05-16T00:05:43;101762.41;;;7.94;100.00
76297;BME280;65104;52.994;6.552;2023-05-16T00:08:08;101757.06;;;7.89;100.00
76297;BME280;65104;52.994;6.552;2023-05-16T00:10:34;101772.34;;;7.87;100.00
76297;BME280;65104;52.994;6.552;2023-05-16T00:12:59;101767.91;;;7.83;100.00
76297;BME280;65104;52.994;6.552;2023-05-16T00:15:26;101777.41;;;7.86;100.00
76297;BME280;65104;52.994;6.552;2023-05-16T00:17:51;101773.09;;;7.85;100.00
76297;BME280;65104;52.994;6.552;2023-05-16T00:20:17;101776.22;;;7.79;100.00
76297;BME280;65104;52.994;6.552;2023-05-16T00:22:47;101770.06;;;7.74;100.00
76297;BME280;65104;52.994;6.552;2023-05-16T00:25:12;101778.34;;;7.69;100.00
76297;BME280;65104;52.994;6.552;2023-05-16T00:27:38;101772.34;;;7.68;100.00
76297;BME280;65104;52.994;6.552;2023-05-16T00:30:03;101773.94;;;7.66;100.00
76297;BME280;65104;52.994;6.552;2023-05-16T00:32:29;101777.91;;;7.60;100.00
76297;BME280;65104;52.994;6.552;2023-05-16T00:34:55;101782.81;;;7.55;100.00
76297;BME280;65104;52.994;6.552;2023-05-16T00:37:20;101781.56;;;7.47;100.00
76297;BME280;65104;52.994;6.552;2023-05-16T00:39:46;101787.72;;;7.50;100.00
76297;BME280;65104;52.994;6.552;2023-05-16T00:42:11;101775.84;;;7.33;100.00
76297;BME280;65104;52.994;6.552;2023-05-16T00:44:36;101772.19;;;7.28;100.00
76297;BME280;65104;52.994;6.552;2023-05-16T00:47:02;101782.63;;;7.33;100.00
76297;BME280;65104;52.994;6.552;2023-05-16T00:49:28;101775.63;;;7.29;100.00
76297;BME280;65104;52.994;6.552;2023-05-16T00:51:54;101779.25;;;7.34;100.00
76297;BME280;65104;52.994;6.552;2023-05-16T00:54:21;101780.28;;;7.37;100.00
76297;BME280;65104;52.994;6.552;2023-05-16T00:56:47;101775.78;;;7.32;100.00
76297;BME280;65104;52.994;6.552;2023-05-16T00:59:13;101775.19;;;7.20;100.00
76297;BME280;65104;52.994;6.552;2023-05-16T01:01:40;101766.56;;;7.18;100.00
76297;BME280;65104;52.994;6.552;2023-05-16T01:04:06;101772.47;;;7.16;100.00
76297;BME280;65104;52.994;6.552;2023-05-16T01:06:32;101764.53;;;7.10;100.00
76297;BME280;65104;52.994;6.552;2023-05-16T01:08:58;101778.63;;;7.02;100.00
76297;BME280;65104;52.994;6.552;2023-05-16T01:14:09;101775.69;;;7.12;100.00
76297;BME280;65104;52.994;6.552;2023-05-16T01:16:39;101776.78;;;7.00;100.00
76297;BME280;65104;52.994;6.552;2023-05-16T01:19:29;101785.63;;;6.89;100.00
76297;BME280;65104;52.994;6.552;2023-05-16T01:22:11;101782.25;;;6.90;100.00
76297;BME280;65104;52.994;6.552;2023-05-16T01:24:49;101785.56;;;6.87;100.00
76297;BME280;65104;52.994;6.552;2023-05-16T01:27:24;101784.25;;;6.95;100.00
76297;BME280;65104;52.994;6.552;2023-05-16T01:29:55;101789.47;;;6.81;100.00
76297;BME280;65104;52.994;6.552;2023-05-16T01:32:20;101779.84;;;6.75;100.00
76297;BME280;65104;52.994;6.552;2023-05-16T01:34:47;101786.53;;;6.73;100.00
76297;BME280;65104;52.994;6.552;2023-05-16T01:37:24;101785.28;;;6.65;100.00
76297;BME280;65104;52.994;6.552;2023-05-16T01:40:03;101793.66;;;6.62;100.00
76297;BME280;65104;52.994;6.552;2023-05-16T01:42:34;101791.69;;;6.57;100.00
76297;BME280;65104;52.994;6.552;2023-05-16T01:45:24;101785.78;;;6.58;100.00
76297;BME280;65104;52.994;6.552;2023-05-16T01:48:03;101786.59;;;6.57;100.00
76297;BME280;65104;52.994;6.552;2023-05-16T01:50:31;101788.03;;;6.52;100.00
76297;BME280;65104;52.994;6.552;2023-05-16T01:53:02;101788.56;;;6.62;100.00
76297;BME280;65104;52.994;6.552;2023-05-16T01:55:47;101784.75;;;6.54;100.00
76297;BME280;65104;52.994;6.552;2023-05-16T01:58:15;101784.63;;;6.51;100.00
76297;BME280;65104;52.994;6.552;2023-05-16T02:00:41;101788.34;;;6.58;100.00
76297;BME280;65104;52.994;6.552;2023-05-16T02:03:07;101786.66;;;6.58;100.00
76297;BME280;65104;52.994;6.552;2023-05-16T02:05:33;101791.19;;;6.64;100.00
76297;BME280;65104;52.994;6.552;2023-05-16T02:07:59;101789.44;;;6.63;100.00
76297;BME280;65104;52.994;6.552;2023-05-16T02:10:25;101788.00;;;6.68;100.00
76297;BME280;65104;52.994;6.552;2023-05-16T02:12:51;101790.53;;;6.68;100.00
76297;BME280;65104;52.994;6.552;2023-05-16T02:15:17;101792.16;;;6.84;100.00
76297;BME280;65104;52.994;6.552;2023-05-16T02:17:42;101797.34;;;6.85;100.00
76297;BME280;65104;52.994;6.552;2023-05-16T02:20:08;101784.38;;;6.98;100.00
76297;BME280;65104;52.994;6.552;2023-05-16T02:22:34;101787.06;;;7.01;100.00
76297;BME280;65104;52.994;6.552;2023-05-16T02:25:01;101782.41;;;7.10;100.00
76297;BME280;65104;52.994;6.552;2023-05-16T02:27:28;101785.63;;;7.06;100.00
76297;BME280;65104;52.994;6.552;2023-05-16T02:29:53;101783.38;;;7.12;100.00
76297;BME280;65104;52.994;6.552;2023-05-16T02:32:19;101778.34;;;7.14;100.00
76297;BME280;65104;52.994;6.552;2023-05-16T02:34:44;101782.22;;;7.06;100.00
76297;BME280;65104;52.994;6.552;2023-05-16T02:37:09;101786.56;;;7.08;100.00
76297;BME280;65104;52.994;6.552;2023-05-16T02:39:35;101781.81;;;7.16;100.00
76297;BME280;65104;52.994;6.552;2023-05-16T02:42:02;101785.56;;;7.23;100.00
76297;BME280;65104;52.994;6.552;2023-05-16T02:44:27;101788.63;;;7.15;100.00
76297;BME280;65104;52.994;6.552;2023-05-16T02:46:53;101784.97;;;7.10;100.00
76297;BME280;65104;52.994;6.552;2023-05-16T02:49:18;101781.25;;;7.22;100.00
76297;BME280;65104;52.994;6.552;2023-05-16T02:51:43;101784.97;;;7.10;100.00
76297;BME280;65104;52.994;6.552;2023-05-16T02:54:09;101781.38;;;7.07;100.00
76297;BME280;65104;52.994;6.552;2023-05-16T02:56:35;101786.28;;;7.02;100.00
76297;BME280;65104;52.994;6.552;2023-05-16T02:59:01;101787.75;;;6.97;100.00
76297;BME280;65104;52.994;6.552;2023-05-16T03:01:28;101780.88;;;6.96;100.00
76297;BME280;65104;52.994;6.552;2023-05-16T03:03:53;101788.19;;;6.89;100.00
76297;BME280;65104;52.994;6.552;2023-05-16T03:06:19;101792.09;;;6.82;100.00
76297;BME280;65104;52.994;6.552;2023-05-16T03:08:44;101796.91;;;6.76;100.00
76297;BME280;65104;52.994;6.552;2023-05-16T03:11:10;101796.75;;;6.73;100.00
76297;BME280;65104;52.994;6.552;2023-05-16T03:13:35;101798.22;;;6.68;100.00
76297;BME280;65104;52.994;6.552;2023-05-16T03:16:01;101798.91;;;6.65;100.00
76297;BME280;65104;52.994;6.552;2023-05-16T03:18:27;101805.78;;;6.66;100.00
76297;BME280;65104;52.994;6.552;2023-05-16T03:20:52;101809.63;;;6.58;100.00
76297;BME280;65104;52.994;6.552;2023-05-16T03:23:19;101802.38;;;6.50;100.00
76297;BME280;65104;52.994;6.552;2023-05-16T03:25:44;101807.16;;;6.60;100.00
76297;BME280;65104;52.994;6.552;2023-05-16T03:28:10;101811.72;;;6.49;100.00
76297;BME280;65104;52.994;6.552;2023-05-16T03:30:36;101805.91;;;6.52;100.00
76297;BME280;65104;52.994;6.552;2023-05-16T03:33:02;101812.34;;;6.45;100.00
76297;BME280;65104;52.994;6.552;2023-05-16T03:35:28;101808.63;;;6.38;100.00
76297;BME280;65104;52.994;6.552;2023-05-16T03:37:54;101818.31;;;6.46;100.00
76297;BME280;65104;52.994;6.552;2023-05-16T03:40:20;101815.31;;;6.36;100.00
76297;BME280;65104;52.994;6.552;2023-05-16T03:42:45;101818.91;;;6.40;100.00
76297;BME280;65104;52.994;6.552;2023-05-16T03:45:11;101820.09;;;6.30;100.00
76297;BME280;65104;52.994;6.552;2023-05-16T03:47:36;101822.56;;;6.29;100.00
76297;BME280;65104;52.994;6.552;2023-05-16T03:50:03;101824.25;;;6.28;100.00
76297;BME280;65104;52.994;6.552;2023-05-16T03:52:28;101818.53;;;6.32;100.00
76297;BME280;65104;52.994;6.552;2023-05-16T03:54:54;101819.47;;;6.34;100.00
76297;BME280;65104;52.994;6.552;2023-05-16T03:57:19;101830.31;;;6.30;100.00
76297;BME280;65104;52.994;6.552;2023-05-16T03:59:44;101816.06;;;6.34;100.00
76297;BME280;65104;52.994;6.552;2023-05-16T04:02:11;101831.84;;;6.43;100.00
76297;BME280;65104;52.994;6.552;2023-05-16T04:04:36;101828.06;;;6.53;100.00
76297;BME280;65104;52.994;6.552;2023-05-16T04:07:01;101840.34;;;6.60;100.00
76297;BME280;65104;52.994;6.552;2023-05-16T04:09:27;101833.63;;;6.62;100.00
76297;BME280;65104;52.994;6.552;2023-05-16T04:11:52;101839.38;;;6.58;100.00
76297;BME280;65104;52.994;6.552;2023-05-16T04:14:20;101842.22;;;6.64;100.00
76297;BME280;65104;52.994;6.552;2023-05-16T04:16:45;101846.22;;;6.59;100.00
76297;BME280;65104;52.994;6.552;2023-05-16T04:19:11;101841.63;;;6.52;100.00
76297;BME280;65104;52.994;6.552;2023-05-16T04:21:36;101844.47;;;6.58;100.00
76297;BME280;65104;52.994;6.552;2023-05-16T04:24:02;101844.78;;;6.64;100.00
76297;BME280;65104;52.994;6.552;2023-05-16T04:26:27;101848.00;;;6.60;100.00
76297;BME280;65104;52.994;6.552;2023-05-16T04:28:54;101844.56;;;6.59;100.00
76297;BME280;65104;52.994;6.552;2023-05-16T04:31:21;101853.31;;;6.64;100.00
76297;BME280;65104;52.994;6.552;2023-05-16T04:33:47;101848.69;;;6.57;100.00
76297;BME280;65104;52.994;6.552;2023-05-16T04:36:13;101852.31;;;6.61;100.00
76297;BME280;65104;52.994;6.552;2023-05-16T04:38:38;101856.19;;;6.54;100.00
76297;BME280;65104;52.994;6.552;2023-05-16T04:41:04;101854.69;;;6.58;100.00
76297;BME280;65104;52.994;6.552;2023-05-16T04:43:29;101854.84;;;6.61;100.00
76297;BME280;65104;52.994;6.552;2023-05-16T04:45:55;101854.09;;;6.63;100.00
76297;BME280;65104;52.994;6.552;2023-05-16T04:48:23;101855.78;;;6.63;100.00
76297;BME280;65104;52.994;6.552;2023-05-16T04:50:48;101845.84;;;6.51;100.00
76297;BME280;65104;52.994;6.552;2023-05-16T04:53:13;101858.28;;;6.61;100.00
76297;BME280;65104;52.994;6.552;2023-05-16T04:55:39;101874.13;;;6.72;100.00
76297;BME280;65104;52.994;6.552;2023-05-16T04:58:05;101868.97;;;6.70;100.00
76297;BME280;65104;52.994;6.552;2023-05-16T05:00:30;101862.63;;;6.64;100.00
76297;BME280;65104;52.994;6.552;2023-05-16T05:02:56;101874.06;;;6.70;100.00
76297;BME280;65104;52.994;6.552;2023-05-16T05:05:21;101862.81;;;6.67;100.00
76297;BME280;65104;52.994;6.552;2023-05-16T05:07:46;101870.13;;;6.77;100.00
76297;BME280;65104;52.994;6.552;2023-05-16T05:10:12;101867.59;;;6.77;100.00
76297;BME280;65104;52.994;6.552;2023-05-16T05:12:38;101880.34;;;6.77;100.00
76297;BME280;65104;52.994;6.552;2023-05-16T05:15:04;101877.88;;;6.78;100.00
76297;BME280;65104;52.994;6.552;2023-05-16T05:17:30;101870.22;;;6.78;100.00
76297;BME280;65104;52.994;6.552;2023-05-16T05:19:56;101874.31;;;6.93;100.00
76297;BME280;65104;52.994;6.552;2023-05-16T05:22:21;101881.41;;;6.98;100.00
76297;BME280;65104;52.994;6.552;2023-05-16T05:24:47;101876.69;;;7.06;100.00
76297;BME280;65104;52.994;6.552;2023-05-16T05:27:12;101875.31;;;7.12;100.00
76297;BME280;65104;52.994;6.552;2023-05-16T05:29:38;101874.28;;;7.09;100.00
76297;BME280;65104;52.994;6.552;2023-05-16T05:32:04;101874.97;;;7.23;100.00
76297;BME280;65104;52.994;6.552;2023-05-16T05:34:29;101879.56;;;7.30;100.00
76297;BME280;65104;52.994;6.552;2023-05-16T05:36:55;101883.00;;;7.30;100.00
76297;BME280;65104;52.994;6.552;2023-05-16T05:39:20;101885.72;;;7.33;100.00
76297;BME280;65104;52.994;6.552;2023-05-16T05:41:46;101885.63;;;7.49;100.00
76297;BME280;65104;52.994;6.552;2023-05-16T05:44:11;101892.53;;;7.52;100.00
76297;BME280;65104;52.994;6.552;2023-05-16T05:46:36;101882.03;;;7.64;100.00
76297;BME280;65104;52.994;6.552;2023-05-16T05:49:02;101886.78;;;7.74;100.00
76297;BME280;65104;52.994;6.552;2023-05-16T05:51:28;101886.25;;;7.81;100.00
76297;BME280;65104;52.994;6.552;2023-05-16T05:53:53;101890.91;;;7.89;100.00
76297;BME280;65104;52.994;6.552;2023-05-16T05:56:19;101885.34;;;7.98;100.00
76297;BME280;65104;52.994;6.552;2023-05-16T05:58:45;101886.78;;;8.11;100.00
76297;BME280;65104;52.994;6.552;2023-05-16T06:01:10;101891.63;;;8.24;100.00
76297;BME280;65104;52.994;6.552;2023-05-16T06:03:36;101894.34;;;8.27;100.00
76297;BME280;65104;52.994;6.552;2023-05-16T06:06:03;101888.78;;;8.36;100.00
76297;BME280;65104;52.994;6.552;2023-05-16T06:08:28;101887.59;;;8.47;100.00
76297;BME280;65104;52.994;6.552;2023-05-16T06:10:53;101895.75;;;8.57;100.00
76297;BME280;65104;52.994;6.552;2023-05-16T06:13:19;101893.38;;;8.62;100.00
76297;BME280;65104;52.994;6.552;2023-05-16T06:15:49;101895.66;;;8.75;100.00
76297;BME280;65104;52.994;6.552;2023-05-16T06:18:15;101905.34;;;8.82;100.00
76297;BME280;65104;52.994;6.552;2023-05-16T06:20:40;101906.06;;;8.99;99.75
76297;BME280;65104;52.994;6.552;2023-05-16T06:23:06;101911.00;;;9.15;99.46
76297;BME280;65104;52.994;6.552;2023-05-16T06:25:31;101901.19;;;9.26;97.41
76297;BME280;65104;52.994;6.552;2023-05-16T06:27:56;101905.00;;;9.35;98.19
76297;BME280;65104;52.994;6.552;2023-05-16T06:30:22;101901.56;;;9.56;93.88
76297;BME280;65104;52.994;6.552;2023-05-16T06:32:47;101910.84;;;9.74;94.35
76297;BME280;65104;52.994;6.552;2023-05-16T06:35:13;101906.47;;;9.94;90.88
76297;BME280;65104;52.994;6.552;2023-05-16T06:37:38;101913.59;;;10.01;91.01
76297;BME280;65104;52.994;6.552;2023-05-16T06:40:04;101907.59;;;10.23;89.90
76297;BME280;65104;52.994;6.552;2023-05-16T06:42:29;101918.06;;;10.28;89.20
76297;BME280;65104;52.994;6.552;2023-05-16T06:44:55;101916.19;;;10.01;85.24
76297;BME280;65104;52.994;6.552;2023-05-16T06:47:20;101926.63;;;9.85;85.49
76297;BME280;65104;52.994;6.552;2023-05-16T06:49:45;101923.94;;;9.60;86.87
76297;BME280;65104;52.994;6.552;2023-05-16T06:52:11;101920.91;;;9.70;85.41
76297;BME280;65104;52.994;6.552;2023-05-16T06:54:37;101930.38;;;9.71;86.61
76297;BME280;65104;52.994;6.552;2023-05-16T06:57:02;101927.25;;;10.00;86.92
76297;BME280;65104;52.994;6.552;2023-05-16T06:59:28;101929.81;;;10.23;86.58
76297;BME280;65104;52.994;6.552;2023-05-16T07:01:53;101927.31;;;10.02;87.48
76297;BME280;65104;52.994;6.552;2023-05-16T07:04:19;101926.91;;;10.36;86.57
76297;BME280;65104;52.994;6.552;2023-05-16T07:06:44;101931.97;;;10.34;83.96
76297;BME280;65104;52.994;6.552;2023-05-16T07:09:10;101924.53;;;10.64;84.78
76297;BME280;65104;52.994;6.552;2023-05-16T07:11:35;101921.25;;;10.94;83.50
76297;BME280;65104;52.994;6.552;2023-05-16T07:14:01;101924.56;;;10.89;83.00
76297;BME280;65104;52.994;6.552;2023-05-16T07:16:26;101930.81;;;10.72;81.16
76297;BME280;65104;52.994;6.552;2023-05-16T07:18:53;101944.06;;;10.37;76.99
76297;BME280;65104;52.994;6.552;2023-05-16T07:21:18;101942.31;;;10.36;78.56
76297;BME280;65104;52.994;6.552;2023-05-16T07:23:44;101941.88;;;10.47;77.47
76297;BME280;65104;52.994;6.552;2023-05-16T07:26:09;101936.44;;;10.62;77.72
76297;BME280;65104;52.994;6.552;2023-05-16T07:28:35;101942.41;;;10.39;76.34
76297;BME280;65104;52.994;6.552;2023-05-16T07:31:00;101945.28;;;10.46;75.16
76297;BME280;65104;52.994;6.552;2023-05-16T07:33:26;101952.47;;;10.33;76.01
76297;BME280;65104;52.994;6.552;2023-05-16T07:35:51;101957.47;;;10.52;76.10
76297;BME280;65104;52.994;6.552;2023-05-16T07:38:19;101951.31;;;10.71;74.59
76297;BME280;65104;52.994;6.552;2023-05-16T07:40:44;101943.25;;;10.85;76.25
76297;BME280;65104;52.994;6.552;2023-05-16T07:43:10;101945.34;;;11.21;74.61
76297;BME280;65104;52.994;6.552;2023-05-16T07:45:35;101938.75;;;11.29;73.61
76297;BME280;65104;52.994;6.552;2023-05-16T07:48:01;101948.47;;;11.63;70.76
76297;BME280;65104;52.994;6.552;2023-05-16T07:50:26;101947.91;;;11.73;69.49
76297;BME280;65104;52.994;6.552;2023-05-16T07:52:51;101945.56;;;11.79;68.69
76297;BME280;65104;52.994;6.552;2023-05-16T07:55:18;101936.13;;;12.07;67.90
76297;BME280;65104;52.994;6.552;2023-05-16T07:57:43;101949.88;;;12.07;68.34
76297;BME280;65104;52.994;6.552;2023-05-16T08:00:09;101940.91;;;12.23;67.25
76297;BME280;65104;52.994;6.552;2023-05-16T08:02:35;101946.16;;;11.97;65.75
76297;BME280;65104;52.994;6.552;2023-05-16T08:05:00;101941.00;;;11.97;67.23
76297;BME280;65104;52.994;6.552;2023-05-16T08:07:25;101943.34;;;11.90;66.43
76297;BME280;65104;52.994;6.552;2023-05-16T08:09:51;101942.22;;;12.10;66.08
76297;BME280;65104;52.994;6.552;2023-05-16T08:12:17;101951.78;;;12.14;67.70
76297;BME280;65104;52.994;6.552;2023-05-16T08:14:42;101944.84;;;12.12;69.20
76297;BME280;65104;52.994;6.552;2023-05-16T08:17:07;101935.88;;;11.99;64.85
76297;BME280;65104;52.994;6.552;2023-05-16T08:19:34;101945.09;;;11.92;67.04
76297;BME280;65104;52.994;6.552;2023-05-16T08:22:00;101950.94;;;11.87;67.47
76297;BME280;65104;52.994;6.552;2023-05-16T08:24:25;101951.06;;;11.90;66.52
76297;BME280;65104;52.994;6.552;2023-05-16T08:26:51;101946.91;;;12.23;60.36
76297;BME280;65104;52.994;6.552;2023-05-16T08:29:16;101948.34;;;12.14;60.33
76297;BME280;65104;52.994;6.552;2023-05-16T08:31:42;101944.47;;;12.28;59.41
76297;BME280;65104;52.994;6.552;2023-05-16T08:34:07;101949.16;;;12.13;59.28
76297;BME280;65104;52.994;6.552;2023-05-16T08:36:35;101941.50;;;12.14;61.27
76297;BME280;65104;52.994;6.552;2023-05-16T08:39:00;101961.34;;;11.64;61.13
76297;BME280;65104;52.994;6.552;2023-05-16T08:41:26;101966.78;;;11.21;61.50
76297;BME280;65104;52.994;6.552;2023-05-16T08:43:51;101965.03;;;11.73;59.48
76297;BME280;65104;52.994;6.552;2023-05-16T08:46:21;101962.91;;;12.13;59.88
76297;BME280;65104;52.994;6.552;2023-05-16T08:48:51;101952.78;;;12.48;59.71
76297;BME280;65104;52.994;6.552;2023-05-16T08:51:18;101952.00;;;13.13;58.13
76297;BME280;65104;52.994;6.552;2023-05-16T08:53:51;101955.31;;;12.76;58.32
76297;BME280;65104;52.994;6.552;2023-05-16T08:56:19;101957.09;;;12.80;58.30
76297;BME280;65104;52.994;6.552;2023-05-16T08:58:46;101962.13;;;13.07;56.64
76297;BME280;65104;52.994;6.552;2023-05-16T09:01:13;101957.91;;;13.40;56.51
76297;BME280;65104;52.994;6.552;2023-05-16T09:03:39;101949.78;;;13.61;53.93
76297;BME280;65104;52.994;6.552;2023-05-16T09:06:05;101946.22;;;13.56;57.06
76297;BME280;65104;52.994;6.552;2023-05-16T09:08:31;101946.38;;;13.28;58.50
76297;BME280;65104;52.994;6.552;2023-05-16T09:10:56;101956.97;;;13.05;58.85
76297;BME280;65104;52.994;6.552;2023-05-16T09:13:23;101967.25;;;12.44;59.72
76297;BME280;65104;52.994;6.552;2023-05-16T09:18:35;101954.41;;;13.38;56.69
76297;BME280;65104;52.994;6.552;2023-05-16T09:21:02;101956.41;;;13.50;56.26
76297;BME280;65104;52.994;6.552;2023-05-16T09:23:28;101947.63;;;13.42;57.95
76297;BME280;65104;52.994;6.552;2023-05-16T09:25:53;101958.53;;;13.00;54.02
76297;BME280;65104;52.994;6.552;2023-05-16T09:28:19;101968.63;;;12.31;51.55
76297;BME280;65104;52.994;6.552;2023-05-16T09:30:45;101958.09;;;13.48;50.76
76297;BME280;65104;52.994;6.552;2023-05-16T09:33:11;101962.72;;;13.99;52.49
76297;BME280;65104;52.994;6.552;2023-05-16T09:35:36;101948.44;;;14.53;49.87
76297;BME280;65104;52.994;6.552;2023-05-16T09:38:02;101954.25;;;14.43;49.29
76297;BME280;65104;52.994;6.552;2023-05-16T09:40:27;101954.31;;;14.46;51.14
76297;BME280;65104;52.994;6.552;2023-05-16T09:43:04;101954.06;;;13.97;49.33
76297;BME280;65104;52.994;6.552;2023-05-16T09:45:30;101960.91;;;13.95;49.61
76297;BME280;65104;52.994;6.552;2023-05-16T09:48:07;101963.84;;;13.38;52.00
76297;BME280;65104;52.994;6.552;2023-05-16T09:50:33;101970.00;;;13.11;53.78
76297;BME280;65104;52.994;6.552;2023-05-16T09:53:00;101982.50;;;12.66;55.63
76297;BME280;65104;52.994;6.552;2023-05-16T09:55:26;101976.88;;;13.78;51.84
76297;BME280;65104;52.994;6.552;2023-05-16T09:57:51;101974.88;;;14.40;50.22
76297;BME280;65104;52.994;6.552;2023-05-16T10:00:17;101972.34;;;14.87;53.17
76297;BME280;65104;52.994;6.552;2023-05-16T10:02:43;101966.78;;;14.66;52.88
76297;BME280;65104;52.994;6.552;2023-05-16T10:05:08;101969.22;;;15.03;52.54
76297;BME280;65104;52.994;6.552;2023-05-16T10:07:34;101958.41;;;14.79;51.69
76297;BME280;65104;52.994;6.552;2023-05-16T10:10:06;101964.66;;;15.36;49.22
76297;BME280;65104;52.994;6.552;2023-05-16T10:12:33;101959.81;;;15.08;49.21
76297;BME280;65104;52.994;6.552;2023-05-16T10:15:00;101954.06;;;15.24;50.33
76297;BME280;65104;52.994;6.552;2023-05-16T10:17:29;101965.78;;;15.04;52.07
76297;BME280;65104;52.994;6.552;2023-05-16T10:19:56;101955.09;;;14.86;49.72
76297;BME280;65104;52.994;6.552;2023-05-16T10:22:22;101952.47;;;15.82;48.96
76297;BME280;65104;52.994;6.552;2023-05-16T10:27:50;101960.44;;;15.43;48.60
76297;BME280;65104;52.994;6.552;2023-05-16T10:30:17;101968.66;;;14.34;49.94
76297;BME280;65104;52.994;6.552;2023-05-16T10:32:45;101972.09;;;13.94;51.92
76297;BME280;65104;52.994;6.552;2023-05-16T10:35:11;101977.00;;;13.14;55.33
76297;BME280;65104;52.994;6.552;2023-05-16T10:37:37;101973.16;;;14.05;55.06
76297;BME280;65104;52.994;6.552;2023-05-16T10:40:05;101974.28;;;14.97;52.22
76297;BME280;65104;52.994;6.552;2023-05-16T10:42:32;101961.09;;;15.31;50.03
76297;BME280;65104;52.994;6.552;2023-05-16T10:45:16;101967.06;;;15.79;48.58
76297;BME280;65104;52.994;6.552;2023-05-16T10:48:01;101964.31;;;15.68;47.41
76297;BME280;65104;52.994;6.552;2023-05-16T11:11:53;101973.78;;;16.25;45.51
76297;BME280;65104;52.994;6.552;2023-05-16T11:14:26;101983.84;;;16.03;46.64
76297;BME280;65104;52.994;6.552;2023-05-16T11:17:01;101967.22;;;16.51;45.30
76297;BME280;65104;52.994;6.552;2023-05-16T11:19:38;101980.50;;;16.10;43.37
76297;BME280;65104;52.994;6.552;2023-05-16T11:27:22;101978.88;;;14.67;48.62
76297;BME280;65104;52.994;6.552;2023-05-16T11:29:48;101971.25;;;14.74;50.11
76297;BME280;65104;52.994;6.552;2023-05-16T11:32:18;101979.50;;;15.00;46.67
76297;BME280;65104;52.994;6.552;2023-05-16T11:34:43;101973.19;;;15.32;43.49
76297;BME280;65104;52.994;6.552;2023-05-16T11:37:11;101981.81;;;16.43;43.59
76297;BME280;65104;52.994;6.552;2023-05-16T11:39:37;101979.22;;;16.43;46.64
76297;BME280;65104;52.994;6.552;2023-05-16T11:42:02;101989.97;;;16.70;46.70
76297;BME280;65104;52.994;6.552;2023-05-16T11:44:28;101983.75;;;15.45;46.15
76297;BME280;65104;52.994;6.552;2023-05-16T11:46:53;101988.03;;;15.92;47.58
76297;BME280;65104;52.994;6.552;2023-05-16T11:49:19;101976.97;;;16.05;45.61
76297;BME280;65104;52.994;6.552;2023-05-16T11:51:44;101971.75;;;15.50;48.07
76297;BME280;65104;52.994;6.552;2023-05-16T11:54:11;101984.25;;;14.79;49.65
76297;BME280;65104;52.994;6.552;2023-05-16T11:56:38;101984.38;;;15.31;50.96
76297;BME280;65104;52.994;6.552;2023-05-16T11:59:05;101986.09;;;15.79;47.83
76297;BME280;65104;52.994;6.552;2023-05-16T12:01:37;101988.13;;;15.47;48.62
76297;BME280;65104;52.994;6.552;2023-05-16T12:04:11;101992.91;;;15.74;47.18
76297;BME280;65104;52.994;6.552;2023-05-16T12:06:37;102001.78;;;14.51;50.44
76297;BME280;65104;52.994;6.552;2023-05-16T12:09:06;102003.53;;;13.77;51.03
76297;BME280;65104;52.994;6.552;2023-05-16T12:11:38;102002.47;;;13.69;52.58
76297;BME280;65104;52.994;6.552;2023-05-16T12:14:05;102003.19;;;13.29;53.72
76297;BME280;65104;52.994;6.552;2023-05-16T12:16:31;101990.16;;;14.72;51.90
76297;BME280;65104;52.994;6.552;2023-05-16T12:18:58;101995.31;;;15.15;51.65
76297;BME280;65104;52.994;6.552;2023-05-16T12:21:23;101989.41;;;14.77;51.87
76297;BME280;65104;52.994;6.552;2023-05-16T12:23:49;101988.75;;;14.45;52.12
76297;BME280;65104;52.994;6.552;2023-05-16T12:26:14;101999.88;;;14.04;54.19
76297;BME280;65104;52.994;6.552;2023-05-16T12:28:42;102006.59;;;13.28;63.55
76297;BME280;65104;52.994;6.552;2023-05-16T12:31:17;102014.06;;;12.89;63.94
76297;BME280;65104;52.994;6.552;2023-05-16T12:33:44;102011.22;;;13.74;64.38
76297;BME280;65104;52.994;6.552;2023-05-16T12:36:12;102005.28;;;14.95;57.78
76297;BME280;65104;52.994;6.552;2023-05-16T12:38:38;101999.19;;;15.38;56.73
76297;BME280;65104;52.994;6.552;2023-05-16T12:41:04;101994.41;;;15.13;52.45
76297;BME280;65104;52.994;6.552;2023-05-16T12:43:29;102003.50;;;15.39;52.19
76297;BME280;65104;52.994;6.552;2023-05-16T12:45:56;102002.13;;;15.10;52.99
76297;BME280;65104;52.994;6.552;2023-05-16T12:48:23;101995.50;;;15.74;50.38
76297;BME280;65104;52.994;6.552;2023-05-16T12:50:49;102005.41;;;16.61;48.41
76297;BME280;65104;52.994;6.552;2023-05-16T12:53:16;101992.44;;;15.99;47.20
76297;BME280;65104;52.994;6.552;2023-05-16T12:55:42;101996.94;;;16.76;45.21
76297;BME280;65104;52.994;6.552;2023-05-16T12:58:08;101990.97;;;16.17;43.06
76297;BME280;65104;52.994;6.552;2023-05-16T13:00:34;101994.22;;;15.51;43.94
76297;BME280;65104;52.994;6.552;2023-05-16T13:03:04;102005.03;;;14.82;45.91
76297;BME280;65104;52.994;6.552;2023-05-16T13:05:30;102015.66;;;14.17;49.48
76297;BME280;65104;52.994;6.552;2023-05-16T13:07:55;102017.44;;;13.82;49.76
76297;BME280;65104;52.994;6.552;2023-05-16T13:10:21;102009.63;;;14.54;51.54
76297;BME280;65104;52.994;6.552;2023-05-16T13:12:47;102009.59;;;14.53;52.02
76297;BME280;65104;52.994;6.552;2023-05-16T13:15:12;102007.19;;;15.06;51.15
76297;BME280;65104;52.994;6.552;2023-05-16T13:17:39;102002.84;;;16.02;50.20
76297;BME280;65104;52.994;6.552;2023-05-16T13:20:07;102008.75;;;15.92;48.31
76297;BME280;65104;52.994;6.552;2023-05-16T13:22:36;102008.19;;;14.67;49.86